地図

経路データ

SID SEASON NUMBER BASIN SUBBASIN NAME ISO_TIME NATURE LAT LON WMO_WIND WMO_PRES WMO_AGENCY TRACK_TYPE DIST2LAND LANDFALL IFLAG USA_AGENCY USA_ATCF_ID USA_LAT USA_LON USA_RECORD USA_STATUS USA_WIND USA_PRES USA_SSHS USA_R34_NE USA_R34_SE USA_R34_SW USA_R34_NW USA_R50_NE USA_R50_SE USA_R50_SW USA_R50_NW USA_R64_NE USA_R64_SE USA_R64_SW USA_R64_NW USA_POCI USA_ROCI USA_RMW USA_EYE TOKYO_LAT TOKYO_LON TOKYO_GRADE TOKYO_WIND TOKYO_PRES TOKYO_R50_DIR TOKYO_R50_LONG TOKYO_R50_SHORT TOKYO_R30_DIR TOKYO_R30_LONG TOKYO_R30_SHORT TOKYO_LAND CMA_LAT CMA_LON CMA_CAT CMA_WIND CMA_PRES HKO_LAT HKO_LON HKO_CAT HKO_WIND HKO_PRES NEWDELHI_LAT NEWDELHI_LON NEWDELHI_GRADE NEWDELHI_WIND NEWDELHI_PRES NEWDELHI_CI NEWDELHI_DP NEWDELHI_POCI REUNION_LAT REUNION_LON REUNION_TYPE REUNION_WIND REUNION_PRES REUNION_TNUM REUNION_CI REUNION_RMW REUNION_R34_NE REUNION_R34_SE REUNION_R34_SW REUNION_R34_NW REUNION_R50_NE REUNION_R50_SE REUNION_R50_SW REUNION_R50_NW REUNION_R64_NE REUNION_R64_SE REUNION_R64_SW REUNION_R64_NW BOM_LAT BOM_LON BOM_TYPE BOM_WIND BOM_PRES BOM_TNUM BOM_CI BOM_RMW BOM_R34_NE BOM_R34_SE BOM_R34_SW BOM_R34_NW BOM_R50_NE BOM_R50_SE BOM_R50_SW BOM_R50_NW BOM_R64_NE BOM_R64_SE BOM_R64_SW BOM_R64_NW BOM_ROCI BOM_POCI BOM_EYE BOM_POS_METHOD BOM_PRES_METHOD NADI_LAT NADI_LON NADI_CAT NADI_WIND NADI_PRES WELLINGTON_LAT WELLINGTON_LON WELLINGTON_WIND WELLINGTON_PRES DS824_LAT DS824_LON DS824_STAGE DS824_WIND DS824_PRES TD9636_LAT TD9636_LON TD9636_STAGE TD9636_WIND TD9636_PRES TD9635_LAT TD9635_LON TD9635_WIND TD9635_PRES TD9635_ROCI NEUMANN_LAT NEUMANN_LON NEUMANN_CLASS NEUMANN_WIND NEUMANN_PRES MLC_LAT MLC_LON MLC_CLASS MLC_WIND MLC_PRES USA_GUST BOM_GUST BOM_GUST_PER REUNION_GUST REUNION_GUST_PER USA_SEAHGT USA_SEARAD_NE USA_SEARAD_SE USA_SEARAD_SW USA_SEARAD_NW STORM_SPEED STORM_DIR
1966364N08088 1966 126 NI BB NOT_NAMED 1966-12-30 06:00:00 TS 7.80000 87.9000 main 668 617 O________O____ jtwc_io IO191966 7.80000 87.9000 -1 7.80000 87.9000 TC 12 297
1966364N08088 1966 126 NI BB NOT_NAMED 1966-12-30 09:00:00 TS 8.06767 87.3727 main 619 567 P________P____ IO191966 8.06767 87.3727 -1 8.06767 87.3727 TC 11 297
1966364N08088 1966 126 NI BB NOT_NAMED 1966-12-30 12:00:00 TS 8.30000 86.9000 main 567 527 O________O____ jtwc_io IO191966 8.30000 86.9000 -1 8.30000 86.9000 TC 35 9 296
1966364N08088 1966 126 NI BB NOT_NAMED 1966-12-30 15:00:00 TS 8.47551 86.5288 main 527 508 P________PO___ IO191966 8.47245 86.5325 -1 8.47245 86.5325 TC 35 8.50000 86.5000 2 6 298
1966364N08088 1966 126 NI BB NOT_NAMED 1966-12-30 18:00:00 TS 8.59772 86.3343 main 508 508 O________OP___ jtwc_io IO191966 8.60000 86.3000 -1 8.60000 86.3000 TC 35 8.58858 86.4716 2 3 315
1966364N08088 1966 126 NI BB NOT_NAMED 1966-12-30 21:00:00 TS 8.70040 86.3003 main 510 502 P________PP___ IO191966 8.70739 86.2649 -1 8.70739 86.2649 TC 35 8.68176 86.3947 2 2 327
1966364N08088 1966 126 NI BB NOT_NAMED 1966-12-31 00:00:00 TS 8.79470 86.2068 main 502 474 O________OP___ jtwc_io IO191966 8.80000 86.2000 -1 8.80000 86.2000 TC 35 8.78409 86.2204 2 4 296
1966364N08088 1966 126 NI BB NOT_NAMED 1966-12-31 03:00:00 TS 8.89495 85.8933 main 474 426 P________PO___ IO191966 8.89242 85.8899 -1 8.89242 85.8899 TC 35 8.90000 85.9000 3 8 285
1966364N08088 1966 126 NI BB NOT_NAMED 1966-12-31 06:00:00 TS 9.01078 85.4023 main 426 370 O________OP___ jtwc_io IO191966 9.00000 85.4000 -1 9.00000 85.4000 TC 35 9.03234 85.4068 3 11 283
1966364N08088 1966 126 NI BB NOT_NAMED 1966-12-31 09:00:00 TS 9.14969 84.7726 main 370 321 P________PP___ IO191966 9.13520 84.7575 -1 9.13520 84.7575 TC 35 9.17866 84.8028 3 13 283
1966364N08088 1966 126 NI BB NOT_NAMED 1966-12-31 12:00:00 TS 9.31183 84.1241 main 311 271 O________OP___ jtwc_io IO191966 9.30000 84.1000 -1 9.30000 84.1000 TC 35 9.33550 84.1723 3 12 287
1966364N08088 1966 126 NI BB NOT_NAMED 1966-12-31 15:00:00 TS 9.49992 83.5983 main 271 245 P________PO___ IO191966 9.49988 83.5975 -1 9.49988 83.5975 TC 35 9.50000 83.6000 3 10 292
1966364N08088 1966 126 NI BB NOT_NAMED 1966-12-31 18:00:00 TS 9.68371 83.1942 main 245 223 O________OP___ jtwc_io IO191966 9.70000 83.2000 -1 9.70000 83.2000 TC 35 9.65114 83.1826 3 8 295
1966364N08088 1966 126 NI BB NOT_NAMED 1966-12-31 21:00:00 TS 9.83728 82.8590 main 223 211 P________PP___ IO191966 9.84992 82.8699 -1 9.84992 82.8699 TC 35 9.81201 82.8373 3 7 297
1966364N08088 1966 126 NI BB NOT_NAMED 1967-01-01 00:00:00 TS 9.99730 82.5828 main 211 192 O________OP___ jtwc_io IO191966 10.0000 82.6000 -1 10.0000 82.6000 TC 35 9.99190 82.5483 3 6 303
1966364N08088 1966 126 NI BB NOT_NAMED 1967-01-01 03:00:00 TS 10.1850 82.3233 main 192 181 P________PO___ IO191966 10.1775 82.3350 -1 10.1775 82.3350 TC 35 10.2000 82.3000 3 6 310
1966364N08088 1966 126 NI BB NOT_NAMED 1967-01-01 06:00:00 TS 10.4086 82.0786 main 188 188 O________OP___ jtwc_io IO191966 10.4000 82.1000 -1 10.4000 82.1000 TC 35 10.4259 82.0357 3 7 318
1966364N08088 1966 126 NI BB NOT_NAMED 1967-01-01 09:00:00 TS 10.6841 81.8600 main 197 191 P________PP___ IO191966 10.6850 81.8850 -1 10.6850 81.8850 TC 35 10.6824 81.8101 3 7 326
1966364N08088 1966 126 NI BB NOT_NAMED 1967-01-01 12:00:00 TS 10.9909 81.6765 main 196 174 O________OP___ jtwc_io IO191966 11.0000 81.7000 -1 11.0000 81.7000 TC 35 10.9728 81.6295 3 7 331
1966364N08088 1966 126 NI BB NOT_NAMED 1967-01-01 15:00:00 TS 11.2900 81.5183 main 174 164 P________PO___ IO191966 11.2850 81.5275 -1 11.2850 81.5275 TC 35 11.3000 81.5000 3 7 336
1966364N08088 1966 126 NI BB NOT_NAMED 1967-01-01 18:00:00 TS 11.6064 81.3975 main 164 137 O________OP___ jtwc_io IO191966 11.6000 81.4000 -1 11.6000 81.4000 TC 35 11.6193 81.3924 3 7 344
1966364N08088 1966 126 NI BB NOT_NAMED 1967-01-01 21:00:00 TS 11.9683 81.3211 main 132 120 P________PP___ IO191966 11.9625 81.3126 -1 11.9625 81.3126 TC 35 11.9800 81.3380 3 8 355
1966364N08088 1966 126 NI BB NOT_NAMED 1967-01-02 00:00:00 TS 12.4002 81.3132 main 120 119 O________OP___ jtwc_io IO191966 12.4000 81.3000 -1 12.4000 81.3000 TC 35 12.4006 81.3396 3 9 4
1966364N08088 1966 126 NI BB NOT_NAMED 1967-01-02 03:00:00 TS 12.9033 81.3800 main 127 119 P________PO___ IO191966 12.9050 81.3700 -1 12.9050 81.3700 TC 35 12.9000 81.4000 3 11 9
1966364N08088 1966 126 NI BB NOT_NAMED 1967-01-02 06:00:00 TS 13.5027 81.4977 main 129 129 O________OP___ jtwc_io IO191966 13.5000 81.5000 -1 13.5000 81.5000 TC 35 13.5081 81.4931 3 13 11
1966364N08088 1966 126 NI BB NOT_NAMED 1967-01-02 09:00:00 TS 14.1866 81.6285 main 147 131 P________PP___ IO191966 14.1850 81.6202 -1 14.1850 81.6202 TC 50 14.1900 81.6452 3 14 12
1966364N08088 1966 126 NI BB NOT_NAMED 1967-01-02 12:00:00 TS 14.9006 81.8166 main 131 95 O________OP___ jtwc_io IO191966 14.9000 81.8000 -1 14.9000 81.8000 TC 65 14.9018 81.8496 3 15 17
1966364N08088 1966 126 NI BB NOT_NAMED 1967-01-02 15:00:00 TS 15.5717 82.0801 main 89 46 P________PO___ IO191966 15.5575 82.0701 -1 15.5575 82.0701 TC 65 15.6000 82.1000 4 14 23
1966364N08088 1966 126 NI BB NOT_NAMED 1967-01-02 18:00:00 TS 16.2167 82.3939 main 46 24 O________OP___ jtwc_io IO191966 16.2000 82.4000 -1 16.2000 82.4000 TC 65 16.2500 82.3815 4 15 26
1966364N08088 1966 126 NI BB NOT_NAMED 1967-01-02 21:00:00 TS 16.8783 82.7348 main 31 10 P________PP___ IO191966 16.8800 82.7499 -1 16.8800 82.7499 TC 65 16.8750 82.7045 4 14 27
1966364N08088 1966 126 NI BB NOT_NAMED 1967-01-03 00:00:00 TS 17.4875 83.0835 main 10 0 O________OP___ jtwc_io IO191966 17.5000 83.1000 -1 17.5000 83.1000 TC 65 17.4625 83.0504 4 13 30
1966364N08088 1966 126 NI BB NOT_NAMED 1967-01-03 03:00:00 TS 17.9866 83.4003 main 0 0 P________PO___ IO191966 17.9799 83.4004 -1 17.9799 83.4004 TC 50 18.0000 83.4000 4 11 32
1966364N08088 1966 126 NI BB NOT_NAMED 1967-01-03 06:00:00 TS 18.4237 83.7073 main 0 0 O________OP___ jtwc_io IO191966 18.4000 83.7000 -1 18.4000 83.7000 TC 35 18.4710 83.7220 4 11 35
1966364N08088 1966 126 NI BB NOT_NAMED 1967-01-03 09:00:00 TS 18.8699 84.0480 main 0 0 P________PP___ IO191966 18.8575 84.0500 -1 18.8575 84.0500 TC 30 18.8946 84.0439 4 11 36
1966364N08088 1966 126 NI BB NOT_NAMED 1967-01-03 12:00:00 TS 19.2987 84.3896 main 0 0 O________OP___ jtwc_io IO191966 19.3000 84.4000 -1 19.3000 84.4000 TC 25 19.2960 84.3688 4 10 37
1966364N08088 1966 126 NI BB NOT_NAMED 1967-01-03 15:00:00 TS 19.6999 84.7002 main 0 0 P________PO___ IO191966 19.6999 84.7004 -1 19.6999 84.7004 TC 25 19.7000 84.7000 1 10 36
1966364N08088 1966 126 NI BB NOT_NAMED 1967-01-03 18:00:00 TS 20.1105 85.0160 main 0 0 O________OP___ jtwc_io IO191966 20.1000 85.0000 -1 20.1000 85.0000 TC 25 20.1263 85.0399 1 11 36
1966364N08088 1966 126 NI BB NOT_NAMED 1967-01-03 21:00:00 TS 20.5529 85.3587 main 0 0 P________PP___ IO191966 20.5377 85.3369 -1 20.5377 85.3369 TC 25 20.5732 85.3878 1 11 36
1966364N08088 1966 126 NI BB NOT_NAMED 1967-01-04 00:00:00 TS 21.0167 85.7209 main 0 0 O________OP___ jtwc_io IO191966 21.0000 85.7000 -1 21.0000 85.7000 TC 25 21.0335 85.7418 1 12 36
1966364N08088 1966 126 NI BB NOT_NAMED 1967-01-04 03:00:00 NR 21.5000 86.1000 main 0 __________O___ IO191966 -1 TC 21.5000 86.1000 1 12 36

IBTrACS Databaseについて

本データベースは、米国NOAAが公開する1842年以降の世界の熱帯低気圧のベストトラックデータアーカイブInternational Best Track Archive for Climate Stewardship (IBTrACS)を、ウェブで閲覧しやすい形式に変換したものです。

最終更新日:2021-12-03